createdAt,value
2023-02-24T00:02:06.318Z,54.00
2023-02-24T00:07:13.062Z,54.60
2023-02-24T00:12:17.182Z,54.70
2023-02-24T00:17:21.344Z,55.00
2023-02-24T00:22:25.451Z,55.20
2023-02-24T00:27:29.599Z,55.20
2023-02-24T00:32:36.341Z,55.00
2023-02-24T00:37:40.333Z,54.90
2023-02-24T00:42:46.057Z,54.50
2023-02-24T00:47:50.137Z,54.80
2023-02-24T00:52:54.457Z,55.10
2023-02-24T00:57:58.532Z,54.90
2023-02-24T01:03:03.894Z,53.80
2023-02-24T01:08:08.614Z,54.30
2023-02-24T01:13:14.184Z,54.60
2023-02-24T01:18:18.181Z,54.90
2023-02-24T01:23:22.146Z,54.90
2023-02-24T01:28:27.716Z,55.10
2023-02-24T01:33:39.634Z,55.10
2023-02-24T01:38:45.197Z,55.30
2023-02-24T01:44:10.380Z,56.10
2023-02-24T01:49:30.721Z,55.60
2023-02-24T01:54:44.770Z,56.20
2023-02-24T01:59:52.585Z,55.60
2023-02-24T02:05:06.662Z,55.70
2023-02-24T02:10:12.570Z,56.00
2023-02-24T02:15:21.313Z,56.00
2023-02-24T02:21:00.203Z,56.30
2023-02-24T02:26:26.248Z,56.00
2023-02-24T02:31:40.709Z,56.50
2023-02-24T02:37:12.481Z,56.00
2023-02-24T02:42:30.548Z,56.10
2023-02-24T02:48:01.978Z,56.60
2023-02-24T02:53:25.360Z,56.10
2023-02-24T02:58:36.108Z,56.20
2023-02-24T03:03:47.260Z,56.50
2023-02-24T03:15:32.511Z,56.60
2023-02-24T03:20:43.450Z,56.60
2023-02-24T03:25:55.309Z,56.80
2023-02-24T03:31:05.343Z,56.70
2023-02-24T03:36:15.449Z,56.70
2023-02-24T03:41:20.269Z,56.70
2023-02-24T03:46:24.903Z,57.10
2023-02-24T03:51:32.030Z,56.90
2023-02-24T03:57:03.614Z,56.90
2023-02-24T04:02:22.706Z,57.00
2023-02-24T04:08:04.993Z,56.60
2023-02-24T04:13:21.780Z,56.50
2023-02-24T04:18:31.299Z,56.30
2023-02-24T04:23:42.043Z,56.10
2023-02-24T04:28:49.060Z,56.20
2023-02-24T04:33:53.917Z,56.00
2023-02-24T04:39:05.539Z,55.60
2023-02-24T04:44:09.343Z,55.10
2023-02-24T04:49:13.884Z,55.10
2023-02-24T04:54:20.793Z,55.00
2023-02-24T04:59:25.538Z,54.90
2023-02-24T05:04:32.029Z,54.70
2023-02-24T05:09:36.056Z,54.50
2023-02-24T05:14:40.088Z,54.50
2023-02-24T05:20:02.847Z,54.50
2023-02-24T05:25:08.605Z,54.00
2023-02-24T05:30:13.240Z,54.10
2023-02-24T05:35:17.728Z,54.00
2023-02-24T05:40:24.619Z,53.90
2023-02-24T05:45:30.771Z,53.60
2023-02-24T05:50:35.129Z,53.80
2023-02-24T05:55:39.462Z,53.80
2023-02-24T06:00:46.574Z,54.30
2023-02-24T06:05:54.401Z,53.80
2023-02-24T06:10:58.201Z,53.60
2023-02-24T06:16:02.197Z,53.70
2023-02-24T06:21:08.011Z,53.80
2023-02-24T06:26:19.739Z,54.30
2023-02-24T06:31:24.259Z,55.00
2023-02-24T06:36:28.409Z,55.50
2023-02-24T06:41:33.471Z,55.80
2023-02-24T06:46:38.004Z,55.10
2023-02-24T06:51:43.996Z,55.30
2023-02-24T06:56:48.447Z,55.40
2023-02-24T07:01:55.505Z,55.80
2023-02-24T07:07:03.728Z,55.20
2023-02-24T07:12:08.370Z,55.40
2023-02-24T07:17:15.305Z,55.70
2023-02-24T07:22:25.469Z,58.00
2023-02-24T07:27:30.542Z,58.20
2023-02-24T07:32:34.765Z,58.00
2023-02-24T07:37:39.253Z,57.40
2023-02-24T07:42:48.387Z,57.50
2023-02-24T07:47:52.895Z,57.40
2023-02-24T07:52:58.475Z,57.40
2023-02-24T07:58:03.474Z,57.50
2023-02-24T08:03:07.553Z,57.70
2023-02-24T08:08:13.320Z,58.10
2023-02-24T08:13:19.632Z,57.80
2023-02-24T08:18:23.834Z,57.80
2023-02-24T08:23:27.804Z,58.50
2023-02-24T08:28:32.525Z,58.60
2023-02-24T08:33:37.780Z,57.90
2023-02-24T08:38:42.612Z,58.50
2023-02-24T08:43:48.726Z,58.40
2023-02-24T08:48:58.196Z,58.50
2023-02-24T08:54:11.631Z,58.70
2023-02-24T08:59:38.111Z,58.30
2023-02-24T09:04:45.153Z,58.10
2023-02-24T09:09:49.908Z,57.90
2023-02-24T09:15:07.860Z,58.20
2023-02-24T09:20:33.438Z,58.40
2023-02-24T09:25:45.228Z,58.20
2023-02-24T09:30:58.955Z,58.00
2023-02-24T09:36:10.830Z,58.10
2023-02-24T09:42:02.791Z,58.10
2023-02-24T09:47:20.355Z,58.50
2023-02-24T09:52:40.138Z,57.40
2023-02-24T09:58:09.838Z,57.20
2023-02-24T10:03:20.210Z,57.60
2023-02-24T10:08:32.250Z,58.10
2023-02-24T10:14:03.479Z,60.00
2023-02-24T10:19:27.993Z,60.30
2023-02-24T10:24:47.793Z,59.80
2023-02-24T10:30:05.896Z,59.30
2023-02-24T10:35:19.207Z,59.00
2023-02-24T10:40:34.171Z,59.00
2023-02-24T10:45:45.589Z,58.60
2023-02-24T10:50:56.060Z,58.80
2023-02-24T10:56:23.321Z,59.70
2023-02-24T11:01:44.008Z,59.10
2023-02-24T11:06:56.229Z,59.70
2023-02-24T11:12:31.372Z,59.50
2023-02-24T11:17:37.496Z,59.10
2023-02-24T11:22:44.233Z,59.70
2023-02-24T11:27:48.274Z,59.20
2023-02-24T11:33:15.872Z,59.30
2023-02-24T11:38:41.573Z,59.20
2023-02-24T11:43:57.184Z,59.20
2023-02-24T11:49:08.875Z,59.20
2023-02-24T11:54:18.049Z,60.00
2023-02-24T11:59:38.548Z,59.40
2023-02-24T12:04:57.521Z,59.10
2023-02-24T12:10:17.254Z,59.20
2023-02-24T12:15:31.115Z,59.20
2023-02-24T12:20:40.817Z,59.20
2023-02-24T12:26:06.991Z,58.80
2023-02-24T12:31:35.590Z,58.60
2023-02-24T12:37:18.176Z,58.50
2023-02-24T12:42:36.316Z,58.30
2023-02-24T12:48:17.377Z,58.10
2023-02-24T12:53:32.256Z,57.70
2023-02-24T12:58:39.728Z,57.40
2023-02-24T13:04:00.401Z,57.10
2023-02-24T13:09:16.364Z,57.80
2023-02-24T13:14:41.321Z,57.70
2023-02-24T13:19:47.274Z,58.90
2023-02-24T13:25:01.956Z,58.40
2023-02-24T13:30:12.645Z,59.10
2023-02-24T13:35:16.463Z,58.50
2023-02-24T13:40:23.406Z,59.30
2023-02-24T13:45:42.176Z,58.70
2023-02-24T13:50:58.646Z,59.90
2023-02-24T13:56:18.158Z,60.00
2023-02-24T14:01:23.666Z,59.50
2023-02-24T14:06:34.798Z,59.70
2023-02-24T14:11:38.726Z,59.50
2023-02-24T14:16:48.607Z,59.90
2023-02-24T14:21:58.214Z,60.90
2023-02-24T14:27:02.597Z,62.30
2023-02-24T14:32:06.816Z,62.50
2023-02-24T14:37:17.529Z,63.00
2023-02-24T14:42:22.418Z,63.50
2023-02-24T14:47:29.083Z,63.20
2023-02-24T14:52:41.810Z,63.60
2023-02-24T14:58:02.089Z,63.60
2023-02-24T15:03:29.886Z,63.80
2023-02-24T15:08:38.723Z,63.90
2023-02-24T15:13:48.075Z,64.30
2023-02-24T15:18:54.258Z,63.70
2023-02-24T15:24:18.947Z,63.80
2023-02-24T15:29:27.925Z,63.60
2023-02-24T15:34:36.770Z,63.50
2023-02-24T15:39:46.877Z,63.70
2023-02-24T15:44:54.638Z,63.50
2023-02-24T15:49:59.946Z,63.60
2023-02-24T15:55:05.485Z,63.00
2023-02-24T16:00:16.814Z,62.90
2023-02-24T16:05:23.656Z,64.20
2023-02-24T16:10:30.073Z,63.10
2023-02-24T16:15:39.540Z,63.70
2023-02-24T16:20:44.161Z,63.30
2023-02-24T16:25:50.126Z,62.90
2023-02-24T16:30:55.123Z,62.20
2023-02-24T16:35:59.911Z,61.30
2023-02-24T16:41:04.285Z,60.90
2023-02-24T16:46:17.147Z,60.60
2023-02-24T16:51:22.462Z,60.30
2023-02-24T16:56:26.974Z,59.80
2023-02-24T17:01:33.112Z,59.50
2023-02-24T17:06:37.826Z,59.00
2023-02-24T17:11:43.610Z,59.20
2023-02-24T17:17:14.938Z,59.40
2023-02-24T17:22:19.370Z,58.70
2023-02-24T17:27:23.839Z,58.20
2023-02-24T17:32:28.520Z,58.30
2023-02-24T17:37:33.041Z,57.60
2023-02-24T17:42:38.864Z,57.00
2023-02-24T17:47:45.629Z,57.10
2023-02-24T17:52:50.961Z,57.20
2023-02-24T17:57:57.332Z,57.00
2023-02-24T18:03:06.701Z,57.40
2023-02-24T18:08:14.574Z,58.20
2023-02-24T18:13:21.730Z,57.90
2023-02-24T18:18:31.152Z,57.90
2023-02-24T18:23:41.101Z,57.90
2023-02-24T18:28:48.882Z,57.70
2023-02-24T18:33:56.775Z,57.80
2023-02-24T18:39:02.530Z,58.00
2023-02-24T18:44:08.346Z,58.50
2023-02-24T18:49:15.323Z,59.00
2023-02-24T18:54:21.728Z,59.30
2023-02-24T18:59:28.224Z,60.00
2023-02-24T19:04:33.498Z,60.80
2023-02-24T19:09:42.505Z,61.10
2023-02-24T19:14:53.327Z,60.90
2023-02-24T19:19:59.390Z,60.90
2023-02-24T19:25:04.864Z,59.60
2023-02-24T19:30:12.063Z,59.60
2023-02-24T19:35:17.530Z,59.60
2023-02-24T19:40:24.588Z,59.30
2023-02-24T19:45:29.974Z,59.70
2023-02-24T19:50:35.992Z,59.70
2023-02-24T19:55:41.865Z,59.50
2023-02-24T20:00:50.187Z,59.70
2023-02-24T20:05:56.361Z,60.20
2023-02-24T20:11:04.081Z,59.30
2023-02-24T20:16:16.982Z,59.40
2023-02-24T20:21:26.621Z,58.90
2023-02-24T20:26:33.768Z,58.90
2023-02-24T20:38:46.730Z,59.00
2023-02-24T20:43:53.447Z,59.30
2023-02-24T20:49:02.204Z,59.50
2023-02-24T20:54:09.329Z,60.00
2023-02-24T20:59:18.308Z,60.60
2023-02-24T21:04:24.164Z,59.90
2023-02-24T21:09:29.964Z,60.00
2023-02-24T21:14:36.928Z,60.10
2023-02-24T21:19:44.562Z,60.20
2023-02-24T21:24:51.188Z,60.20
2023-02-24T21:29:56.683Z,59.60
2023-02-24T21:35:03.590Z,60.00
2023-02-24T21:40:12.432Z,60.30
2023-02-24T21:45:19.633Z,60.40
2023-02-24T21:50:24.810Z,60.60
2023-02-24T21:55:31.998Z,60.60
2023-02-24T22:00:36.655Z,60.60
2023-02-24T22:05:50.406Z,61.00
2023-02-24T22:11:02.815Z,61.10
2023-02-24T22:16:13.211Z,60.50
2023-02-24T22:21:20.140Z,64.20
2023-02-24T22:26:25.735Z,62.80
2023-02-24T22:31:31.912Z,62.60
2023-02-24T22:36:40.035Z,63.60
2023-02-24T22:41:47.264Z,62.90
2023-02-24T22:46:53.123Z,62.50
2023-02-24T22:51:57.906Z,62.20
2023-02-24T22:57:02.555Z,62.30
2023-02-24T23:02:06.907Z,62.10
2023-02-24T23:07:12.246Z,62.00
2023-02-24T23:12:17.624Z,61.70
2023-02-24T23:17:23.282Z,62.50
2023-02-24T23:22:27.423Z,62.20
2023-02-24T23:27:31.775Z,62.20
2023-02-24T23:32:37.056Z,63.20
2023-02-24T23:37:41.982Z,62.90
2023-02-24T23:42:46.732Z,62.90
2023-02-24T23:47:51.087Z,62.60
2023-02-24T23:52:55.419Z,63.00
2023-02-24T23:58:00.296Z,62.50
